Cleveld, Tennessee
Current Conditions -  °F | °C
As of 6:35 PM on Friday 19 Dec 2014 (Local Time) from KRZR Reporting Station
Clear Clear  
Wind Chill: 39°   Ceiling: Unl
Heat Index: 39°   Visibility: 10mi
Dew Point: 30°   Wind: 3mph
Humidity: 70%   Direction: 10°N
Pressure: 30.18"   Gusts: NA
Location:  35.2131°N, 84.8428°W
Report Text: KRZR 192335Z AUTO 01003KT 10SM CLR 04/M01 A3018 RMK
Loading
Personal Weather Stations






























Interactive Weather Map New forecast layout! Learn more

10-Day Weather Forecast

Advertisements
Track Severe Weather on mobile